sensor_id;sensor_type;location;lat;lon;timestamp;P1;durP1;ratioP1;P2;durP2;ratioP2
20649;SDS011;10484;48.736;9.332;2023-05-13T00:01:03;2.80;;;2.60;;
20649;SDS011;10484;48.736;9.332;2023-05-13T00:03:29;3.10;;;2.83;;
20649;SDS011;10484;48.736;9.332;2023-05-13T00:05:54;3.70;;;2.90;;
20649;SDS011;10484;48.736;9.332;2023-05-13T00:08:20;3.57;;;2.93;;
20649;SDS011;10484;48.736;9.332;2023-05-13T00:10:46;4.30;;;2.70;;
20649;SDS011;10484;48.736;9.332;2023-05-13T00:13:11;2.80;;;2.60;;
20649;SDS011;10484;48.736;9.332;2023-05-13T00:15:37;3.13;;;2.83;;
20649;SDS011;10484;48.736;9.332;2023-05-13T00:18:04;2.80;;;2.57;;
20649;SDS011;10484;48.736;9.332;2023-05-13T00:20:29;3.23;;;2.70;;
20649;SDS011;10484;48.736;9.332;2023-05-13T00:22:55;3.73;;;2.57;;
20649;SDS011;10484;48.736;9.332;2023-05-13T00:25:20;2.93;;;2.73;;
20649;SDS011;10484;48.736;9.332;2023-05-13T00:27:46;7.43;;;2.83;;
20649;SDS011;10484;48.736;9.332;2023-05-13T00:30:12;2.90;;;2.63;;
20649;SDS011;10484;48.736;9.332;2023-05-13T00:32:37;3.20;;;2.63;;
20649;SDS011;10484;48.736;9.332;2023-05-13T00:35:03;3.63;;;2.87;;
20649;SDS011;10484;48.736;9.332;2023-05-13T00:37:29;2.80;;;2.40;;
20649;SDS011;10484;48.736;9.332;2023-05-13T00:39:54;3.23;;;2.77;;
20649;SDS011;10484;48.736;9.332;2023-05-13T00:42:20;2.97;;;2.60;;
20649;SDS011;10484;48.736;9.332;2023-05-13T00:44:45;2.70;;;2.50;;
20649;SDS011;10484;48.736;9.332;2023-05-13T00:47:11;3.03;;;2.80;;
20649;SDS011;10484;48.736;9.332;2023-05-13T00:49:37;2.60;;;2.40;;
20649;SDS011;10484;48.736;9.332;2023-05-13T00:52:02;3.37;;;2.50;;
20649;SDS011;10484;48.736;9.332;2023-05-13T00:54:29;3.57;;;2.90;;
20649;SDS011;10484;48.736;9.332;2023-05-13T00:56:55;2.83;;;2.53;;
20649;SDS011;10484;48.736;9.332;2023-05-13T00:59:25;3.30;;;2.80;;
20649;SDS011;10484;48.736;9.332;2023-05-13T01:02:06;2.80;;;2.60;;
20649;SDS011;10484;48.736;9.332;2023-05-13T01:04:45;3.10;;;2.83;;
20649;SDS011;10484;48.736;9.332;2023-05-13T01:10:14;2.83;;;2.23;;
20649;SDS011;10484;48.736;9.332;2023-05-13T01:12:47;3.20;;;2.80;;
20649;SDS011;10484;48.736;9.332;2023-05-13T01:15:23;2.83;;;2.63;;
20649;SDS011;10484;48.736;9.332;2023-05-13T01:20:29;3.33;;;2.97;;
20649;SDS011;10484;48.736;9.332;2023-05-13T01:22:55;3.30;;;3.10;;
20649;SDS011;10484;48.736;9.332;2023-05-13T01:25:21;3.00;;;2.80;;
20649;SDS011;10484;48.736;9.332;2023-05-13T01:27:48;3.27;;;3.00;;
20649;SDS011;10484;48.736;9.332;2023-05-13T01:30:14;3.20;;;3.00;;
20649;SDS011;10484;48.736;9.332;2023-05-13T01:32:40;2.70;;;2.50;;
20649;SDS011;10484;48.736;9.332;2023-05-13T01:35:06;2.40;;;2.20;;
20649;SDS011;10484;48.736;9.332;2023-05-13T01:37:35;2.90;;;2.70;;
20649;SDS011;10484;48.736;9.332;2023-05-13T01:40:01;3.80;;;2.30;;
20649;SDS011;10484;48.736;9.332;2023-05-13T01:42:28;6.73;;;2.57;;
20649;SDS011;10484;48.736;9.332;2023-05-13T01:44:54;3.13;;;2.93;;
20649;SDS011;10484;48.736;9.332;2023-05-13T01:47:19;3.70;;;2.67;;
20649;SDS011;10484;48.736;9.332;2023-05-13T01:49:45;3.80;;;2.53;;
20649;SDS011;10484;48.736;9.332;2023-05-13T01:52:10;2.53;;;2.33;;
20649;SDS011;10484;48.736;9.332;2023-05-13T01:54:36;4.00;;;2.40;;
20649;SDS011;10484;48.736;9.332;2023-05-13T01:57:02;3.00;;;2.50;;
20649;SDS011;10484;48.736;9.332;2023-05-13T01:59:28;2.47;;;2.27;;
20649;SDS011;10484;48.736;9.332;2023-05-13T02:01:53;2.80;;;2.60;;
20649;SDS011;10484;48.736;9.332;2023-05-13T02:04:19;2.53;;;2.33;;
20649;SDS011;10484;48.736;9.332;2023-05-13T02:06:45;2.90;;;2.60;;
20649;SDS011;10484;48.736;9.332;2023-05-13T02:09:11;2.80;;;2.60;;
20649;SDS011;10484;48.736;9.332;2023-05-13T02:11:37;2.70;;;2.50;;
20649;SDS011;10484;48.736;9.332;2023-05-13T02:14:03;3.57;;;2.13;;
20649;SDS011;10484;48.736;9.332;2023-05-13T02:16:28;2.60;;;2.40;;
20649;SDS011;10484;48.736;9.332;2023-05-13T02:18:54;2.30;;;2.10;;
20649;SDS011;10484;48.736;9.332;2023-05-13T02:21:20;2.27;;;1.93;;
20649;SDS011;10484;48.736;9.332;2023-05-13T02:23:46;2.67;;;2.47;;
20649;SDS011;10484;48.736;9.332;2023-05-13T02:26:11;2.50;;;2.30;;
20649;SDS011;10484;48.736;9.332;2023-05-13T02:28:37;1.90;;;1.60;;
20649;SDS011;10484;48.736;9.332;2023-05-13T02:31:02;2.27;;;2.03;;
20649;SDS011;10484;48.736;9.332;2023-05-13T02:33:28;2.10;;;2.00;;
20649;SDS011;10484;48.736;9.332;2023-05-13T02:35:53;2.13;;;1.93;;
20649;SDS011;10484;48.736;9.332;2023-05-13T02:38:19;3.23;;;2.00;;
20649;SDS011;10484;48.736;9.332;2023-05-13T02:40:44;3.37;;;2.30;;
20649;SDS011;10484;48.736;9.332;2023-05-13T02:43:10;2.13;;;1.87;;
20649;SDS011;10484;48.736;9.332;2023-05-13T02:45:36;2.80;;;2.60;;
20649;SDS011;10484;48.736;9.332;2023-05-13T02:48:03;2.87;;;2.60;;
20649;SDS011;10484;48.736;9.332;2023-05-13T02:50:29;2.07;;;1.87;;
20649;SDS011;10484;48.736;9.332;2023-05-13T02:52:54;1.80;;;1.67;;
20649;SDS011;10484;48.736;9.332;2023-05-13T02:55:20;2.47;;;1.97;;
20649;SDS011;10484;48.736;9.332;2023-05-13T02:57:46;2.63;;;2.43;;
20649;SDS011;10484;48.736;9.332;2023-05-13T03:00:11;2.13;;;1.93;;
20649;SDS011;10484;48.736;9.332;2023-05-13T03:02:38;2.53;;;2.33;;
20649;SDS011;10484;48.736;9.332;2023-05-13T03:05:04;3.10;;;1.90;;
20649;SDS011;10484;48.736;9.332;2023-05-13T03:07:29;1.80;;;1.60;;
20649;SDS011;10484;48.736;9.332;2023-05-13T03:09:55;2.27;;;2.07;;
20649;SDS011;10484;48.736;9.332;2023-05-13T03:12:21;1.97;;;1.87;;
20649;SDS011;10484;48.736;9.332;2023-05-13T03:14:46;2.30;;;2.10;;
20649;SDS011;10484;48.736;9.332;2023-05-13T03:17:12;3.43;;;1.83;;
20649;SDS011;10484;48.736;9.332;2023-05-13T03:19:37;3.43;;;2.37;;
20649;SDS011;10484;48.736;9.332;2023-05-13T03:22:03;2.10;;;1.90;;
20649;SDS011;10484;48.736;9.332;2023-05-13T03:24:29;2.60;;;2.30;;
20649;SDS011;10484;48.736;9.332;2023-05-13T03:26:55;2.63;;;2.23;;
20649;SDS011;10484;48.736;9.332;2023-05-13T03:29:21;2.43;;;1.83;;
20649;SDS011;10484;48.736;9.332;2023-05-13T03:31:47;2.50;;;2.30;;
20649;SDS011;10484;48.736;9.332;2023-05-13T03:34:13;3.20;;;2.10;;
20649;SDS011;10484;48.736;9.332;2023-05-13T03:36:39;2.80;;;1.87;;
20649;SDS011;10484;48.736;9.332;2023-05-13T03:39:05;2.47;;;2.27;;
20649;SDS011;10484;48.736;9.332;2023-05-13T03:41:30;1.87;;;1.77;;
20649;SDS011;10484;48.736;9.332;2023-05-13T03:43:56;2.07;;;1.90;;
20649;SDS011;10484;48.736;9.332;2023-05-13T03:46:21;3.80;;;2.03;;
20649;SDS011;10484;48.736;9.332;2023-05-13T03:48:47;1.90;;;1.80;;
20649;SDS011;10484;48.736;9.332;2023-05-13T03:51:13;3.00;;;2.57;;
20649;SDS011;10484;48.736;9.332;2023-05-13T03:53:39;2.80;;;1.87;;
20649;SDS011;10484;48.736;9.332;2023-05-13T03:56:05;2.80;;;2.13;;
20649;SDS011;10484;48.736;9.332;2023-05-13T03:58:30;2.73;;;2.53;;
20649;SDS011;10484;48.736;9.332;2023-05-13T04:00:56;2.30;;;2.10;;
20649;SDS011;10484;48.736;9.332;2023-05-13T04:03:22;2.47;;;2.27;;
20649;SDS011;10484;48.736;9.332;2023-05-13T04:05:47;2.37;;;2.17;;
20649;SDS011;10484;48.736;9.332;2023-05-13T04:08:13;2.40;;;2.20;;
20649;SDS011;10484;48.736;9.332;2023-05-13T04:10:39;2.67;;;2.47;;
20649;SDS011;10484;48.736;9.332;2023-05-13T04:13:05;2.77;;;2.50;;
20649;SDS011;10484;48.736;9.332;2023-05-13T04:15:31;3.00;;;1.90;;
20649;SDS011;10484;48.736;9.332;2023-05-13T04:17:57;2.40;;;2.20;;
20649;SDS011;10484;48.736;9.332;2023-05-13T04:20:22;2.97;;;2.40;;
20649;SDS011;10484;48.736;9.332;2023-05-13T04:22:48;2.73;;;2.53;;
20649;SDS011;10484;48.736;9.332;2023-05-13T04:25:14;3.07;;;2.67;;
20649;SDS011;10484;48.736;9.332;2023-05-13T04:27:39;3.67;;;2.47;;
20649;SDS011;10484;48.736;9.332;2023-05-13T04:30:05;2.60;;;2.40;;
20649;SDS011;10484;48.736;9.332;2023-05-13T04:32:31;2.73;;;2.33;;
20649;SDS011;10484;48.736;9.332;2023-05-13T04:34:57;2.70;;;2.50;;
20649;SDS011;10484;48.736;9.332;2023-05-13T04:37:22;2.60;;;2.40;;
20649;SDS011;10484;48.736;9.332;2023-05-13T04:39:48;2.50;;;2.30;;
20649;SDS011;10484;48.736;9.332;2023-05-13T04:42:14;2.30;;;2.10;;
20649;SDS011;10484;48.736;9.332;2023-05-13T04:44:40;2.57;;;2.37;;
20649;SDS011;10484;48.736;9.332;2023-05-13T04:47:07;2.53;;;2.33;;
20649;SDS011;10484;48.736;9.332;2023-05-13T04:49:33;3.33;;;2.80;;
20649;SDS011;10484;48.736;9.332;2023-05-13T04:52:00;2.73;;;2.53;;
20649;SDS011;10484;48.736;9.332;2023-05-13T04:54:26;2.40;;;2.20;;
20649;SDS011;10484;48.736;9.332;2023-05-13T04:56:52;3.40;;;3.10;;
20649;SDS011;10484;48.736;9.332;2023-05-13T04:59:17;3.00;;;2.80;;
20649;SDS011;10484;48.736;9.332;2023-05-13T05:01:43;3.03;;;2.37;;
20649;SDS011;10484;48.736;9.332;2023-05-13T05:04:09;2.47;;;2.33;;
20649;SDS011;10484;48.736;9.332;2023-05-13T05:06:35;3.40;;;3.10;;
20649;SDS011;10484;48.736;9.332;2023-05-13T05:09:00;2.93;;;2.63;;
20649;SDS011;10484;48.736;9.332;2023-05-13T05:11:26;3.30;;;3.00;;
20649;SDS011;10484;48.736;9.332;2023-05-13T05:13:51;2.73;;;2.53;;
20649;SDS011;10484;48.736;9.332;2023-05-13T05:16:17;4.37;;;2.77;;
20649;SDS011;10484;48.736;9.332;2023-05-13T05:18:42;3.50;;;3.20;;
20649;SDS011;10484;48.736;9.332;2023-05-13T05:21:08;4.53;;;3.00;;
20649;SDS011;10484;48.736;9.332;2023-05-13T05:23:34;3.50;;;3.10;;
20649;SDS011;10484;48.736;9.332;2023-05-13T05:26:00;2.73;;;2.40;;
20649;SDS011;10484;48.736;9.332;2023-05-13T05:28:27;3.30;;;3.00;;
20649;SDS011;10484;48.736;9.332;2023-05-13T05:30:53;3.50;;;3.20;;
20649;SDS011;10484;48.736;9.332;2023-05-13T05:33:19;2.87;;;2.67;;
20649;SDS011;10484;48.736;9.332;2023-05-13T05:35:45;2.73;;;2.57;;
20649;SDS011;10484;48.736;9.332;2023-05-13T05:38:10;2.83;;;2.63;;
20649;SDS011;10484;48.736;9.332;2023-05-13T05:40:40;2.83;;;2.63;;
20649;SDS011;10484;48.736;9.332;2023-05-13T05:43:07;3.20;;;2.60;;
20649;SDS011;10484;48.736;9.332;2023-05-13T05:45:35;3.00;;;2.80;;
20649;SDS011;10484;48.736;9.332;2023-05-13T05:48:01;3.20;;;2.90;;
20649;SDS011;10484;48.736;9.332;2023-05-13T05:50:27;4.10;;;2.67;;
20649;SDS011;10484;48.736;9.332;2023-05-13T05:52:53;3.20;;;2.90;;
20649;SDS011;10484;48.736;9.332;2023-05-13T05:55:19;3.63;;;3.03;;
20649;SDS011;10484;48.736;9.332;2023-05-13T05:57:45;3.30;;;3.00;;
20649;SDS011;10484;48.736;9.332;2023-05-13T06:00:11;3.20;;;3.00;;
20649;SDS011;10484;48.736;9.332;2023-05-13T06:02:37;3.70;;;3.40;;
20649;SDS011;10484;48.736;9.332;2023-05-13T06:05:03;2.83;;;2.63;;
20649;SDS011;10484;48.736;9.332;2023-05-13T06:07:28;2.90;;;2.70;;
20649;SDS011;10484;48.736;9.332;2023-05-13T06:09:54;3.50;;;2.90;;
20649;SDS011;10484;48.736;9.332;2023-05-13T06:12:20;2.70;;;2.50;;
20649;SDS011;10484;48.736;9.332;2023-05-13T06:14:46;3.20;;;3.00;;
20649;SDS011;10484;48.736;9.332;2023-05-13T06:17:12;3.10;;;2.90;;
20649;SDS011;10484;48.736;9.332;2023-05-13T06:19:39;3.53;;;3.23;;
20649;SDS011;10484;48.736;9.332;2023-05-13T06:22:06;3.73;;;3.43;;
20649;SDS011;10484;48.736;9.332;2023-05-13T06:24:33;2.90;;;2.57;;
20649;SDS011;10484;48.736;9.332;2023-05-13T06:26:59;3.00;;;2.80;;
20649;SDS011;10484;48.736;9.332;2023-05-13T06:29:25;3.50;;;3.23;;
20649;SDS011;10484;48.736;9.332;2023-05-13T06:31:51;3.20;;;2.90;;
20649;SDS011;10484;48.736;9.332;2023-05-13T06:34:16;4.10;;;3.70;;
20649;SDS011;10484;48.736;9.332;2023-05-13T06:36:42;3.80;;;3.50;;
20649;SDS011;10484;48.736;9.332;2023-05-13T06:39:08;3.23;;;3.00;;
20649;SDS011;10484;48.736;9.332;2023-05-13T06:41:35;3.93;;;3.03;;
20649;SDS011;10484;48.736;9.332;2023-05-13T06:44:01;3.20;;;2.90;;
20649;SDS011;10484;48.736;9.332;2023-05-13T06:46:27;3.93;;;3.20;;
20649;SDS011;10484;48.736;9.332;2023-05-13T06:48:52;3.20;;;2.90;;
20649;SDS011;10484;48.736;9.332;2023-05-13T06:51:20;4.33;;;3.97;;
20649;SDS011;10484;48.736;9.332;2023-05-13T06:53:46;3.00;;;2.80;;
20649;SDS011;10484;48.736;9.332;2023-05-13T06:56:12;4.40;;;3.03;;
20649;SDS011;10484;48.736;9.332;2023-05-13T06:58:37;3.90;;;3.50;;
20649;SDS011;10484;48.736;9.332;2023-05-13T07:01:03;4.10;;;3.70;;
20649;SDS011;10484;48.736;9.332;2023-05-13T07:03:28;3.67;;;3.37;;
20649;SDS011;10484;48.736;9.332;2023-05-13T07:05:54;3.60;;;3.30;;
20649;SDS011;10484;48.736;9.332;2023-05-13T07:08:20;3.27;;;3.00;;
20649;SDS011;10484;48.736;9.332;2023-05-13T07:10:46;3.63;;;3.33;;
20649;SDS011;10484;48.736;9.332;2023-05-13T07:13:12;3.20;;;2.90;;
20649;SDS011;10484;48.736;9.332;2023-05-13T07:15:38;4.13;;;3.70;;
20649;SDS011;10484;48.736;9.332;2023-05-13T07:18:03;3.50;;;3.10;;
20649;SDS011;10484;48.736;9.332;2023-05-13T07:20:29;4.03;;;3.73;;
20649;SDS011;10484;48.736;9.332;2023-05-13T07:22:55;4.40;;;4.00;;
20649;SDS011;10484;48.736;9.332;2023-05-13T07:25:21;5.77;;;4.33;;
20649;SDS011;10484;48.736;9.332;2023-05-13T07:27:46;4.57;;;4.17;;
20649;SDS011;10484;48.736;9.332;2023-05-13T07:30:12;5.73;;;3.97;;
20649;SDS011;10484;48.736;9.332;2023-05-13T07:32:38;5.00;;;4.30;;
20649;SDS011;10484;48.736;9.332;2023-05-13T07:35:04;5.40;;;4.57;;
20649;SDS011;10484;48.736;9.332;2023-05-13T07:37:30;4.30;;;3.90;;
20649;SDS011;10484;48.736;9.332;2023-05-13T07:39:56;5.40;;;4.80;;
20649;SDS011;10484;48.736;9.332;2023-05-13T07:42:21;4.17;;;3.77;;
20649;SDS011;10484;48.736;9.332;2023-05-13T07:44:48;6.47;;;5.20;;
20649;SDS011;10484;48.736;9.332;2023-05-13T07:47:13;4.67;;;4.17;;
20649;SDS011;10484;48.736;9.332;2023-05-13T07:49:39;5.40;;;4.43;;
20649;SDS011;10484;48.736;9.332;2023-05-13T07:52:04;4.63;;;4.23;;
20649;SDS011;10484;48.736;9.332;2023-05-13T07:54:30;3.83;;;3.50;;
20649;SDS011;10484;48.736;9.332;2023-05-13T07:56:56;3.30;;;3.00;;
20649;SDS011;10484;48.736;9.332;2023-05-13T07:59:21;4.60;;;4.20;;
20649;SDS011;10484;48.736;9.332;2023-05-13T08:01:47;3.80;;;3.50;;
20649;SDS011;10484;48.736;9.332;2023-05-13T08:04:12;3.50;;;3.20;;
20649;SDS011;10484;48.736;9.332;2023-05-13T08:06:38;4.90;;;3.50;;
20649;SDS011;10484;48.736;9.332;2023-05-13T08:09:04;3.63;;;3.33;;
20649;SDS011;10484;48.736;9.332;2023-05-13T08:11:30;4.03;;;3.50;;
20649;SDS011;10484;48.736;9.332;2023-05-13T08:13:56;3.83;;;3.53;;
20649;SDS011;10484;48.736;9.332;2023-05-13T08:16:21;3.80;;;2.90;;
20649;SDS011;10484;48.736;9.332;2023-05-13T08:18:47;5.50;;;3.63;;
20649;SDS011;10484;48.736;9.332;2023-05-13T08:21:13;3.70;;;3.40;;
20649;SDS011;10484;48.736;9.332;2023-05-13T08:23:38;4.67;;;3.40;;
20649;SDS011;10484;48.736;9.332;2023-05-13T08:26:04;3.73;;;3.43;;
20649;SDS011;10484;48.736;9.332;2023-05-13T08:28:29;3.83;;;3.23;;
20649;SDS011;10484;48.736;9.332;2023-05-13T08:30:55;4.33;;;3.70;;
20649;SDS011;10484;48.736;9.332;2023-05-13T08:33:29;4.90;;;3.73;;
20649;SDS011;10484;48.736;9.332;2023-05-13T08:35:55;3.57;;;3.27;;
20649;SDS011;10484;48.736;9.332;2023-05-13T08:38:21;4.50;;;4.00;;
20649;SDS011;10484;48.736;9.332;2023-05-13T08:40:47;4.60;;;4.20;;
20649;SDS011;10484;48.736;9.332;2023-05-13T08:43:13;4.70;;;3.57;;
20649;SDS011;10484;48.736;9.332;2023-05-13T08:45:40;4.20;;;3.80;;
20649;SDS011;10484;48.736;9.332;2023-05-13T08:48:09;4.43;;;3.43;;
20649;SDS011;10484;48.736;9.332;2023-05-13T08:50:38;4.50;;;3.53;;
20649;SDS011;10484;48.736;9.332;2023-05-13T08:53:05;4.33;;;3.93;;
20649;SDS011;10484;48.736;9.332;2023-05-13T08:55:31;3.70;;;3.40;;
20649;SDS011;10484;48.736;9.332;2023-05-13T08:57:56;3.90;;;3.50;;
20649;SDS011;10484;48.736;9.332;2023-05-13T09:00:22;3.97;;;3.57;;
20649;SDS011;10484;48.736;9.332;2023-05-13T09:02:48;3.57;;;3.27;;
20649;SDS011;10484;48.736;9.332;2023-05-13T09:05:14;3.30;;;3.10;;
20649;SDS011;10484;48.736;9.332;2023-05-13T09:07:41;5.33;;;3.30;;
20649;SDS011;10484;48.736;9.332;2023-05-13T09:10:07;5.40;;;3.70;;
20649;SDS011;10484;48.736;9.332;2023-05-13T09:12:47;3.73;;;3.43;;
20649;SDS011;10484;48.736;9.332;2023-05-13T09:15:18;3.57;;;3.30;;
20649;SDS011;10484;48.736;9.332;2023-05-13T09:17:49;4.80;;;3.43;;
20649;SDS011;10484;48.736;9.332;2023-05-13T09:20:20;4.20;;;3.27;;
20649;SDS011;10484;48.736;9.332;2023-05-13T09:25:14;3.10;;;2.90;;
20649;SDS011;10484;48.736;9.332;2023-05-13T09:27:42;3.70;;;3.37;;
20649;SDS011;10484;48.736;9.332;2023-05-13T09:30:11;3.63;;;3.33;;
20649;SDS011;10484;48.736;9.332;2023-05-13T09:32:38;4.80;;;3.97;;
20649;SDS011;10484;48.736;9.332;2023-05-13T09:35:08;4.77;;;4.27;;
20649;SDS011;10484;48.736;9.332;2023-05-13T09:37:35;4.63;;;4.23;;
20649;SDS011;10484;48.736;9.332;2023-05-13T09:40:01;3.70;;;3.40;;
20649;SDS011;10484;48.736;9.332;2023-05-13T09:42:27;4.10;;;3.70;;
20649;SDS011;10484;48.736;9.332;2023-05-13T09:44:53;4.00;;;3.70;;
20649;SDS011;10484;48.736;9.332;2023-05-13T09:47:19;3.80;;;3.50;;
20649;SDS011;10484;48.736;9.332;2023-05-13T09:49:53;5.53;;;3.70;;
20649;SDS011;10484;48.736;9.332;2023-05-13T09:52:20;2.90;;;2.63;;
20649;SDS011;10484;48.736;9.332;2023-05-13T09:54:46;4.00;;;3.13;;
20649;SDS011;10484;48.736;9.332;2023-05-13T09:57:12;3.60;;;3.23;;
20649;SDS011;10484;48.736;9.332;2023-05-13T09:59:38;3.70;;;3.40;;
20649;SDS011;10484;48.736;9.332;2023-05-13T10:02:05;2.73;;;2.53;;
20649;SDS011;10484;48.736;9.332;2023-05-13T10:04:33;4.30;;;2.33;;
20649;SDS011;10484;48.736;9.332;2023-05-13T10:06:59;2.73;;;2.53;;
20649;SDS011;10484;48.736;9.332;2023-05-13T10:09:27;2.67;;;2.47;;
20649;SDS011;10484;48.736;9.332;2023-05-13T10:11:58;3.00;;;2.50;;
20649;SDS011;10484;48.736;9.332;2023-05-13T10:14:26;2.30;;;2.10;;
20649;SDS011;10484;48.736;9.332;2023-05-13T10:16:52;3.63;;;2.23;;
20649;SDS011;10484;48.736;9.332;2023-05-13T10:19:18;2.80;;;2.00;;
20649;SDS011;10484;48.736;9.332;2023-05-13T10:21:44;2.70;;;2.50;;
20649;SDS011;10484;48.736;9.332;2023-05-13T10:24:11;2.53;;;2.33;;
20649;SDS011;10484;48.736;9.332;2023-05-13T10:26:37;2.30;;;2.10;;
20649;SDS011;10484;48.736;9.332;2023-05-13T10:29:05;3.93;;;2.00;;
20649;SDS011;10484;48.736;9.332;2023-05-13T10:31:32;2.70;;;2.50;;
20649;SDS011;10484;48.736;9.332;2023-05-13T10:33:58;2.63;;;2.40;;
20649;SDS011;10484;48.736;9.332;2023-05-13T10:42:04;2.17;;;1.97;;
20649;SDS011;10484;48.736;9.332;2023-05-13T10:44:46;2.00;;;1.90;;
20649;SDS011;10484;48.736;9.332;2023-05-13T10:47:15;2.00;;;1.80;;
20649;SDS011;10484;48.736;9.332;2023-05-13T10:49:41;1.90;;;1.80;;
20649;SDS011;10484;48.736;9.332;2023-05-13T10:52:15;2.03;;;1.90;;
20649;SDS011;10484;48.736;9.332;2023-05-13T10:54:40;2.20;;;2.07;;
20649;SDS011;10484;48.736;9.332;2023-05-13T10:57:06;2.60;;;2.40;;
20649;SDS011;10484;48.736;9.332;2023-05-13T10:59:33;2.47;;;2.27;;
20649;SDS011;10484;48.736;9.332;2023-05-13T11:02:01;2.47;;;2.27;;
20649;SDS011;10484;48.736;9.332;2023-05-13T11:04:59;2.27;;;2.07;;
20649;SDS011;10484;48.736;9.332;2023-05-13T11:07:28;1.73;;;1.63;;
20649;SDS011;10484;48.736;9.332;2023-05-13T11:09:54;2.00;;;1.87;;
20649;SDS011;10484;48.736;9.332;2023-05-13T11:12:19;2.30;;;2.10;;
20649;SDS011;10484;48.736;9.332;2023-05-13T11:14:45;2.27;;;2.17;;
20649;SDS011;10484;48.736;9.332;2023-05-13T11:17:11;1.80;;;1.60;;
20649;SDS011;10484;48.736;9.332;2023-05-13T11:19:37;2.63;;;2.43;;
20649;SDS011;10484;48.736;9.332;2023-05-13T11:22:13;2.70;;;2.23;;
20649;SDS011;10484;48.736;9.332;2023-05-13T11:25:01;2.67;;;2.47;;
20649;SDS011;10484;48.736;9.332;2023-05-13T11:27:31;3.67;;;2.23;;
20649;SDS011;10484;48.736;9.332;2023-05-13T11:30:03;1.90;;;1.80;;
20649;SDS011;10484;48.736;9.332;2023-05-13T11:35:22;2.10;;;2.00;;
20649;SDS011;10484;48.736;9.332;2023-05-13T11:37:57;2.30;;;1.90;;
20649;SDS011;10484;48.736;9.332;2023-05-13T11:40:26;2.07;;;1.97;;
20649;SDS011;10484;48.736;9.332;2023-05-13T11:42:53;2.07;;;1.97;;
20649;SDS011;10484;48.736;9.332;2023-05-13T11:45:20;2.43;;;1.97;;
20649;SDS011;10484;48.736;9.332;2023-05-13T11:47:47;2.10;;;2.00;;
20649;SDS011;10484;48.736;9.332;2023-05-13T11:50:20;1.80;;;1.70;;
20649;SDS011;10484;48.736;9.332;2023-05-13T11:52:52;2.00;;;1.80;;
20649;SDS011;10484;48.736;9.332;2023-05-13T11:55:25;2.47;;;2.00;;
20649;SDS011;10484;48.736;9.332;2023-05-13T11:57:52;1.97;;;1.77;;
20649;SDS011;10484;48.736;9.332;2023-05-13T12:02:54;2.43;;;1.60;;
20649;SDS011;10484;48.736;9.332;2023-05-13T12:05:20;2.30;;;2.10;;
20649;SDS011;10484;48.736;9.332;2023-05-13T12:07:46;2.03;;;1.80;;
20649;SDS011;10484;48.736;9.332;2023-05-13T12:10:12;2.00;;;1.80;;
20649;SDS011;10484;48.736;9.332;2023-05-13T12:12:39;1.80;;;1.70;;
20649;SDS011;10484;48.736;9.332;2023-05-13T12:15:07;2.33;;;2.10;;
20649;SDS011;10484;48.736;9.332;2023-05-13T12:17:35;2.53;;;2.33;;
20649;SDS011;10484;48.736;9.332;2023-05-13T12:22:47;2.17;;;2.07;;
20649;SDS011;10484;48.736;9.332;2023-05-13T12:28:09;2.50;;;2.30;;
20649;SDS011;10484;48.736;9.332;2023-05-13T12:30:37;2.10;;;2.00;;
20649;SDS011;10484;48.736;9.332;2023-05-13T12:33:04;2.40;;;2.20;;
20649;SDS011;10484;48.736;9.332;2023-05-13T12:35:33;2.87;;;2.67;;
20649;SDS011;10484;48.736;9.332;2023-05-13T12:38:04;2.70;;;2.50;;
20649;SDS011;10484;48.736;9.332;2023-05-13T12:40:30;2.77;;;2.57;;
20649;SDS011;10484;48.736;9.332;2023-05-13T12:43:00;3.70;;;2.20;;
20649;SDS011;10484;48.736;9.332;2023-05-13T12:45:27;2.60;;;2.40;;
20649;SDS011;10484;48.736;9.332;2023-05-13T12:47:54;2.77;;;2.57;;
20649;SDS011;10484;48.736;9.332;2023-05-13T12:50:20;4.13;;;3.10;;
20649;SDS011;10484;48.736;9.332;2023-05-13T12:52:47;3.70;;;2.60;;
20649;SDS011;10484;48.736;9.332;2023-05-13T12:55:12;3.23;;;3.03;;
20649;SDS011;10484;48.736;9.332;2023-05-13T12:57:41;3.00;;;2.80;;
20649;SDS011;10484;48.736;9.332;2023-05-13T13:00:07;2.70;;;2.43;;
20649;SDS011;10484;48.736;9.332;2023-05-13T13:02:34;1.83;;;1.70;;
20649;SDS011;10484;48.736;9.332;2023-05-13T13:05:00;2.70;;;2.50;;
20649;SDS011;10484;48.736;9.332;2023-05-13T13:07:26;3.50;;;1.93;;
20649;SDS011;10484;48.736;9.332;2023-05-13T13:09:52;3.30;;;2.43;;
20649;SDS011;10484;48.736;9.332;2023-05-13T13:12:19;7.00;;;3.00;;
20649;SDS011;10484;48.736;9.332;2023-05-13T13:14:44;3.50;;;2.60;;
20649;SDS011;10484;48.736;9.332;2023-05-13T13:17:11;3.00;;;2.80;;
20649;SDS011;10484;48.736;9.332;2023-05-13T13:19:36;3.23;;;1.90;;
20649;SDS011;10484;48.736;9.332;2023-05-13T13:22:02;2.77;;;2.57;;
20649;SDS011;10484;48.736;9.332;2023-05-13T13:24:28;2.47;;;2.30;;
20649;SDS011;10484;48.736;9.332;2023-05-13T13:26:53;2.60;;;2.40;;
20649;SDS011;10484;48.736;9.332;2023-05-13T13:29:19;2.93;;;2.70;;
20649;SDS011;10484;48.736;9.332;2023-05-13T13:31:45;3.10;;;2.13;;
20649;SDS011;10484;48.736;9.332;2023-05-13T13:34:11;2.37;;;2.20;;
20649;SDS011;10484;48.736;9.332;2023-05-13T13:36:37;3.00;;;2.80;;
20649;SDS011;10484;48.736;9.332;2023-05-13T13:39:03;2.40;;;2.20;;
20649;SDS011;10484;48.736;9.332;2023-05-13T13:41:28;2.70;;;2.50;;
20649;SDS011;10484;48.736;9.332;2023-05-13T13:43:54;5.20;;;2.97;;
20649;SDS011;10484;48.736;9.332;2023-05-13T13:46:20;2.70;;;2.50;;
20649;SDS011;10484;48.736;9.332;2023-05-13T13:48:45;2.73;;;2.53;;
20649;SDS011;10484;48.736;9.332;2023-05-13T13:51:11;2.20;;;2.07;;
20649;SDS011;10484;48.736;9.332;2023-05-13T13:53:36;2.63;;;2.40;;
20649;SDS011;10484;48.736;9.332;2023-05-13T13:56:02;3.10;;;2.40;;
20649;SDS011;10484;48.736;9.332;2023-05-13T13:58:27;2.20;;;2.10;;
20649;SDS011;10484;48.736;9.332;2023-05-13T14:00:53;2.87;;;2.67;;
20649;SDS011;10484;48.736;9.332;2023-05-13T14:03:19;2.77;;;2.57;;
20649;SDS011;10484;48.736;9.332;2023-05-13T14:05:44;4.10;;;2.50;;
20649;SDS011;10484;48.736;9.332;2023-05-13T14:08:10;2.53;;;2.33;;
20649;SDS011;10484;48.736;9.332;2023-05-13T14:10:36;2.80;;;2.60;;
20649;SDS011;10484;48.736;9.332;2023-05-13T14:13:01;2.80;;;2.60;;
20649;SDS011;10484;48.736;9.332;2023-05-13T14:15:27;3.60;;;2.80;;
20649;SDS011;10484;48.736;9.332;2023-05-13T14:17:54;2.70;;;2.60;;
20649;SDS011;10484;48.736;9.332;2023-05-13T14:20:20;2.37;;;2.27;;
20649;SDS011;10484;48.736;9.332;2023-05-13T14:22:47;3.60;;;3.10;;
20649;SDS011;10484;48.736;9.332;2023-05-13T14:25:13;3.00;;;2.80;;
20649;SDS011;10484;48.736;9.332;2023-05-13T14:27:38;3.03;;;2.83;;
20649;SDS011;10484;48.736;9.332;2023-05-13T14:30:05;3.90;;;3.50;;
20649;SDS011;10484;48.736;9.332;2023-05-13T14:32:31;3.30;;;3.00;;
20649;SDS011;10484;48.736;9.332;2023-05-13T14:34:59;4.63;;;3.10;;
20649;SDS011;10484;48.736;9.332;2023-05-13T14:37:25;4.87;;;3.70;;
20649;SDS011;10484;48.736;9.332;2023-05-13T14:39:50;3.60;;;3.10;;
20649;SDS011;10484;48.736;9.332;2023-05-13T14:42:16;3.87;;;3.57;;
20649;SDS011;10484;48.736;9.332;2023-05-13T14:44:42;4.60;;;3.73;;
20649;SDS011;10484;48.736;9.332;2023-05-13T14:47:07;4.03;;;3.73;;
20649;SDS011;10484;48.736;9.332;2023-05-13T14:49:34;4.50;;;4.10;;
20649;SDS011;10484;48.736;9.332;2023-05-13T14:51:59;4.50;;;4.10;;
20649;SDS011;10484;48.736;9.332;2023-05-13T14:54:25;4.80;;;4.40;;
20649;SDS011;10484;48.736;9.332;2023-05-13T14:56:50;5.20;;;4.70;;
20649;SDS011;10484;48.736;9.332;2023-05-13T14:59:16;4.10;;;3.77;;
20649;SDS011;10484;48.736;9.332;2023-05-13T15:01:42;4.83;;;4.43;;
20649;SDS011;10484;48.736;9.332;2023-05-13T15:04:08;4.40;;;3.90;;
20649;SDS011;10484;48.736;9.332;2023-05-13T15:06:35;4.27;;;3.87;;
20649;SDS011;10484;48.736;9.332;2023-05-13T15:09:01;4.00;;;3.70;;